Time;durP1;ratioP1;P1;durP2;ratioP2;P2;SDS_P1;SDS_P2;PMS_P1;PMS_P2;Temp;Humidity;BMP_temperature;BMP_pressure;BME280_temperature;BME280_humidity;BME280_pressure;Samples;Min_cycle;Max_cycle;Signal;HPM_P1;HPM_P2
2022/10/19 00:00:29;;;;;;;21.88;4.05;;;10.40;99.90;;;;;;5052680;28;20028;-91
2022/10/19 00:02:55;;;;;;;9.27;2.25;;;10.30;99.90;;;;;;5044049;28;20037;-91
2022/10/19 00:05:20;;;;;;;19.73;2.78;;;10.20;99.90;;;;;;5049439;28;20033;-92
2022/10/19 00:07:46;;;;;;;10.10;2.40;;;10.20;99.90;;;;;;5040541;28;20158;-90
2022/10/19 00:10:11;;;;;;;13.75;2.60;;;10.10;99.90;;;;;;5054105;28;20029;-91
2022/10/19 00:12:37;;;;;;;9.43;2.30;;;10.00;99.90;;;;;;5049605;28;20108;-89
2022/10/19 00:15:04;;;;;;;31.77;4.50;;;10.00;99.90;;;;;;5056236;28;20021;-92
2022/10/19 00:17:30;;;;;;;20.10;3.28;;;10.00;99.90;;;;;;5048451;28;20036;-89
2022/10/19 00:19:55;;;;;;;18.52;2.58;;;9.90;99.90;;;;;;5059235;28;20102;-91
2022/10/19 00:22:21;;;;;;;18.55;3.15;;;9.80;99.90;;;;;;5052085;28;20032;-91
2022/10/19 00:24:47;;;;;;;21.92;3.67;;;9.80;99.90;;;;;;5050111;28;20467;-91
2022/10/19 00:27:12;;;;;;;18.15;3.78;;;9.90;99.90;;;;;;5045182;28;20041;-90
2022/10/19 00:29:41;;;;;;;16.60;3.00;;;9.80;99.90;;;;;;5052841;28;20033;-91
2022/10/19 00:32:07;;;;;;;25.15;3.35;;;9.80;99.90;;;;;;5049023;28;20063;-91
2022/10/19 00:34:32;;;;;;;17.35;2.85;;;9.80;99.90;;;;;;5056383;28;20163;-91
2022/10/19 00:36:58;;;;;;;17.50;3.10;;;9.80;99.90;;;;;;5056954;28;20053;-91
2022/10/19 00:39:23;;;;;;;11.70;3.00;;;9.80;99.90;;;;;;5056760;28;20028;-91
2022/10/19 00:41:49;;;;;;;17.27;3.60;;;9.80;99.90;;;;;;5063605;28;20381;-91
2022/10/19 00:44:14;;;;;;;19.67;2.70;;;9.80;99.90;;;;;;5057564;28;20587;-90
2022/10/19 00:46:52;;;;;;;16.42;3.25;;;9.70;99.90;;;;;;5052082;28;20029;-91
2022/10/19 00:49:32;;;;;;;15.63;2.88;;;9.70;99.90;;;;;;5062928;28;20021;-91
2022/10/19 00:52:05;;;;;;;6.35;2.17;;;9.60;99.90;;;;;;5054596;28;20037;-91
2022/10/19 00:54:36;;;;;;;27.70;4.57;;;9.60;99.90;;;;;;5063360;28;20134;-92
2022/10/19 00:57:03;;;;;;;12.85;2.58;;;9.60;99.90;;;;;;5046517;28;20033;-91
2022/10/19 00:59:30;;;;;;;17.63;3.58;;;9.50;99.90;;;;;;5046786;28;20075;-91
2022/10/19 01:01:57;;;;;;;13.85;2.40;;;9.50;99.90;;;;;;5051030;28;20024;-92
2022/10/19 01:04:25;;;;;;;11.63;2.58;;;9.50;99.90;;;;;;5058545;28;20108;-92
2022/10/19 01:06:52;;;;;;;18.98;3.38;;;9.50;99.90;;;;;;5054980;28;20119;-91
2022/10/19 01:09:18;;;;;;;15.10;2.50;;;9.50;99.90;;;;;;5063574;28;20056;-91
2022/10/19 01:11:52;;;;;;;16.25;2.35;;;9.50;99.90;;;;;;5057949;28;20477;-91
2022/10/19 01:14:24;;;;;;;17.90;2.85;;;9.50;99.90;;;;;;5050502;28;20048;-91
2022/10/19 01:16:59;;;;;;;14.00;2.58;;;9.50;99.90;;;;;;5047717;28;20037;-91
2022/10/19 01:20:06;;;;;;;17.52;3.95;;;9.50;99.90;;;;;;5046583;28;20048;-92
2022/10/19 01:22:54;;;;;;;22.45;3.33;;;9.50;99.90;;;;;;5047547;28;20525;-91
2022/10/19 01:25:50;;;;;;;28.95;7.60;;;9.60;99.90;;;;;;5049474;28;20649;-91
2022/10/19 01:28:16;;;;;;;;;;;9.70;99.90;;;;;;5053742;28;20037;-91
2022/10/19 01:31:04;;;;;;;28.50;4.93;;;9.80;99.90;;;;;;5056542;28;19999;-91
2022/10/19 01:33:48;;;;;;;23.33;5.70;;;9.90;99.90;;;;;;5058215;28;20062;-91
2022/10/19 01:36:21;;;;;;;25.63;5.15;;;10.00;99.90;;;;;;5052574;28;20553;-92
2022/10/19 01:39:10;;;;;;;22.80;5.80;;;10.10;99.90;;;;;;5052418;28;20560;-90
2022/10/19 01:42:00;;;;;;;22.65;4.72;;;10.10;99.90;;;;;;5057953;28;20489;-92
2022/10/19 01:44:54;;;;;;;21.25;4.53;;;10.20;99.90;;;;;;5054916;28;20028;-91
2022/10/19 01:47:35;;;;;;;13.13;3.50;;;10.20;99.90;;;;;;5050023;28;20049;-91
2022/10/19 01:50:22;;;;;;;17.83;6.00;;;10.30;99.90;;;;;;5043167;28;20033;-89
2022/10/19 01:52:49;;;;;;;20.52;4.55;;;10.30;99.90;;;;;;5051630;28;20037;-90
2022/10/19 01:55:16;;;;;;;20.63;4.50;;;10.40;99.90;;;;;;5046359;28;20060;-92
2022/10/19 01:57:49;;;;;;;22.55;4.18;;;10.30;99.90;;;;;;5060048;28;20117;-92
2022/10/19 02:00:16;;;;;;;17.17;4.10;;;10.30;99.90;;;;;;5061805;28;20043;-90
2022/10/19 02:02:48;;;;;;;13.15;3.17;;;10.40;99.90;;;;;;5051278;28;20490;-91
2022/10/19 02:05:17;;;;;;;19.02;4.28;;;10.30;99.90;;;;;;5055358;28;20035;-91
2022/10/19 02:07:47;;;;;;;13.10;2.78;;;10.30;99.90;;;;;;5057451;28;20044;-91
2022/10/19 02:10:13;;;;;;;23.85;4.32;;;10.30;99.90;;;;;;5055543;28;20599;-91
2022/10/19 02:12:40;;;;;;;16.95;4.25;;;10.30;99.90;;;;;;5055305;28;20117;-91
2022/10/19 02:15:13;;;;;;;15.73;3.35;;;10.30;99.90;;;;;;5058107;28;20048;-91
2022/10/19 02:17:44;;;;;;;21.95;4.03;;;10.30;99.90;;;;;;5054498;28;20057;-92
2022/10/19 02:20:10;;;;;;;14.18;3.65;;;10.30;99.90;;;;;;5048945;28;20035;-91
2022/10/19 02:22:36;;;;;;;15.02;3.97;;;10.30;99.90;;;;;;5053768;28;20025;-91
2022/10/19 02:25:02;;;;;;;12.75;3.25;;;10.40;99.90;;;;;;5039398;28;20036;-90
2022/10/19 02:27:28;;;;;;;10.85;2.78;;;10.40;99.90;;;;;;5051509;28;20033;-91
2022/10/19 02:29:54;;;;;;;16.33;3.50;;;10.40;99.90;;;;;;5052868;28;20032;-90
2022/10/19 02:32:20;;;;;;;24.60;4.13;;;10.40;99.90;;;;;;5048974;28;20035;-90
2022/10/19 02:34:49;;;;;;;25.10;3.25;;;10.40;99.90;;;;;;5049797;28;20383;-91
2022/10/19 02:37:14;;;;;;;18.95;3.63;;;10.40;99.90;;;;;;5049354;28;20481;-91
2022/10/19 02:39:40;;;;;;;19.60;3.65;;;10.40;99.90;;;;;;5054126;28;20033;-89
2022/10/19 02:42:05;;;;;;;14.40;3.08;;;10.40;99.90;;;;;;5063819;28;20102;-92
2022/10/19 02:44:57;;;;;;;19.02;3.53;;;10.40;99.90;;;;;;5063353;28;20097;-90
2022/10/19 02:47:43;;;;;;;22.52;4.07;;;10.50;99.90;;;;;;5052886;28;20041;-90
2022/10/19 02:50:10;;;;;;;14.13;3.20;;;10.50;99.90;;;;;;5060765;28;20029;-92
2022/10/19 02:52:37;;;;;;;16.77;2.72;;;10.60;99.90;;;;;;5053658;28;20036;-91
2022/10/19 02:55:03;;;;;;;24.65;4.22;;;10.50;99.90;;;;;;5067097;28;20037;-91
2022/10/19 02:57:31;;;;;;;10.57;3.13;;;10.50;99.90;;;;;;5058138;28;20111;-91
2022/10/19 02:59:57;;;;;;;15.00;3.03;;;10.50;99.90;;;;;;5053270;28;20090;-90
2022/10/19 03:02:23;;;;;;;14.82;2.85;;;10.60;99.90;;;;;;5052862;28;20523;-91
2022/10/19 03:04:49;;;;;;;14.98;2.72;;;10.60;99.90;;;;;;5056002;28;20044;-91
2022/10/19 03:07:18;;;;;;;19.92;3.28;;;10.50;99.90;;;;;;5056809;28;20043;-91
2022/10/19 03:09:44;;;;;;;18.98;3.95;;;10.60;99.90;;;;;;5052305;28;20493;-90
2022/10/19 03:12:11;;;;;;;13.13;2.78;;;10.50;99.90;;;;;;5039578;28;20048;-91
2022/10/19 03:14:37;;;;;;;14.80;4.00;;;10.50;99.90;;;;;;5047516;28;20029;-91
2022/10/19 03:17:03;;;;;;;23.55;3.08;;;10.50;99.90;;;;;;5042438;28;20025;-90
2022/10/19 03:19:28;;;;;;;7.30;1.67;;;10.50;99.90;;;;;;5046711;28;20108;-92
2022/10/19 03:21:54;;;;;;;12.07;2.63;;;10.50;99.90;;;;;;5043694;28;20160;-92
2022/10/19 03:24:20;;;;;;;6.55;1.80;;;10.50;99.90;;;;;;5059208;28;20115;-91
2022/10/19 03:26:48;;;;;;;12.07;2.95;;;10.40;99.90;;;;;;5055280;28;20040;-90
2022/10/19 03:29:14;;;;;;;9.10;1.95;;;10.50;99.90;;;;;;5053550;28;20067;-91
2022/10/19 03:31:42;;;;;;;8.23;2.17;;;10.40;99.90;;;;;;5049372;28;20029;-91
2022/10/19 03:34:11;;;;;;;6.55;2.13;;;10.50;99.90;;;;;;5056613;28;20079;-91
2022/10/19 03:37:08;;;;;;;4.95;1.73;;;10.50;99.90;;;;;;5054516;28;20045;-91
2022/10/19 03:39:45;;;;;;;10.27;2.38;;;10.50;99.90;;;;;;5042361;28;20449;-91
2022/10/19 03:42:58;;;;;;;;;;;;;;;;;;;;;
2022/10/19 03:45:34;;;;;;;11.85;2.67;;;10.50;99.90;;;;;;5045939;28;20056;-90
2022/10/19 03:48:43;;;;;;;11.38;2.67;;;10.50;99.90;;;;;;5054812;28;20029;-90
2022/10/19 03:52:18;;;;;;;13.77;2.50;;;10.50;99.90;;;;;;5050334;28;20028;-90
2022/10/19 03:54:51;;;;;;;15.68;2.17;;;10.50;99.90;;;;;;4994625;28;20038;-90
2022/10/19 03:58:29;;;;;;;12.00;2.08;;;10.40;99.90;;;;;;4998092;28;20123;-91
2022/10/19 04:01:01;;;;;;;9.73;2.13;;;10.50;99.90;;;;;;5043499;28;20041;-91
2022/10/19 04:03:45;;;;;;;15.10;2.55;;;10.40;99.90;;;;;;5052400;28;20652;-91
2022/10/19 04:06:33;;;;;;;11.82;2.13;;;10.50;99.90;;;;;;5045931;28;20259;-91
2022/10/19 04:09:32;;;;;;;13.60;2.58;;;10.50;99.90;;;;;;5047017;28;20277;-89
2022/10/19 04:12:00;;;;;;;15.10;2.53;;;10.50;99.90;;;;;;5048086;28;20171;-91
2022/10/19 04:14:57;;;;;;;9.77;2.33;;;10.50;99.90;;;;;;5055179;28;20025;-90
2022/10/19 04:18:21;;;;;;;;;;;;;;;;;;;;;
2022/10/19 04:21:30;;;;;;;5.53;1.65;;;10.50;99.90;;;;;;5048404;28;20112;-90
2022/10/19 04:24:43;;;;;;;5.55;1.70;;;10.50;99.90;;;;;;5045534;28;20041;-90
2022/10/19 04:27:39;;;;;;;10.68;1.85;;;10.50;99.90;;;;;;5026955;28;20056;-91
2022/10/19 04:30:18;;;;;;;7.65;1.75;;;10.60;99.90;;;;;;5039314;28;20049;-92
2022/10/19 04:32:44;;;;;;;11.85;1.92;;;10.60;99.90;;;;;;5044419;28;20116;-90
2022/10/19 04:35:10;;;;;;;6.28;1.85;;;10.50;99.90;;;;;;5055894;28;20139;-90
2022/10/19 04:37:38;;;;;;;10.77;2.17;;;10.50;99.90;;;;;;5047836;28;20037;-92
2022/10/19 04:40:04;;;;;;;4.78;1.90;;;10.50;99.90;;;;;;5064100;28;20151;-92
2022/10/19 04:42:30;;;;;;;6.18;1.58;;;10.50;99.90;;;;;;5052554;28;20389;-92
2022/10/19 04:44:56;;;;;;;5.72;1.73;;;10.50;99.90;;;;;;5046106;28;20029;-91
2022/10/19 04:47:22;;;;;;;8.35;1.92;;;10.50;99.90;;;;;;5058636;28;20492;-91
2022/10/19 04:49:50;;;;;;;9.95;2.25;;;10.50;99.90;;;;;;5046123;28;20116;-91
2022/10/19 04:52:16;;;;;;;5.22;1.50;;;10.60;99.90;;;;;;5034789;28;20055;-90
2022/10/19 04:54:41;;;;;;;11.48;1.58;;;10.50;99.90;;;;;;5044434;28;20056;-91
2022/10/19 04:57:07;;;;;;;7.43;1.95;;;10.50;99.90;;;;;;5059161;28;20050;-92
2022/10/19 04:59:32;;;;;;;14.68;1.92;;;10.50;99.90;;;;;;5046228;28;20027;-90
2022/10/19 05:01:58;;;;;;;3.15;1.58;;;10.50;99.90;;;;;;5062023;28;20111;-92
2022/10/19 05:04:24;;;;;;;6.55;1.80;;;10.60;99.90;;;;;;5068364;28;20036;-91
2022/10/19 05:06:49;;;;;;;12.75;1.88;;;10.60;99.90;;;;;;5060284;28;20055;-91
2022/10/19 05:09:15;;;;;;;11.93;3.53;;;10.50;99.90;;;;;;5044630;28;20389;-92
2022/10/19 05:11:40;;;;;;;5.28;1.60;;;10.60;99.90;;;;;;5063095;28;20489;-92
2022/10/19 05:14:06;;;;;;;4.10;1.70;;;10.60;99.90;;;;;;5059094;28;20469;-91
2022/10/19 05:16:31;;;;;;;10.02;1.80;;;10.50;99.90;;;;;;5059107;28;20040;-91
2022/10/19 05:19:00;;;;;;;9.13;1.88;;;10.50;99.90;;;;;;5058895;28;20451;-91
2022/10/19 05:21:27;;;;;;;3.60;1.42;;;10.50;99.90;;;;;;5054158;28;20373;-92
2022/10/19 05:24:02;;;;;;;9.25;1.70;;;10.60;99.90;;;;;;5059916;28;20096;-91
2022/10/19 05:26:29;;;;;;;11.32;2.00;;;10.60;99.90;;;;;;5044390;28;20100;-92
2022/10/19 05:29:03;;;;;;;6.75;1.90;;;10.60;99.90;;;;;;5048860;28;20056;-92
2022/10/19 05:31:31;;;;;;;11.57;2.28;;;10.70;99.90;;;;;;5055046;28;20536;-92
2022/10/19 05:34:00;;;;;;;14.32;1.90;;;10.70;99.90;;;;;;5058343;28;20456;-90
2022/10/19 05:36:33;;;;;;;15.63;2.03;;;10.60;99.90;;;;;;5053252;28;20021;-91
2022/10/19 05:39:12;;;;;;;15.90;2.88;;;10.60;99.90;;;;;;5053055;28;20040;-92
2022/10/19 05:41:37;;;;;;;14.63;2.60;;;10.60;99.90;;;;;;5062234;28;20474;-92
2022/10/19 05:44:06;;;;;;;11.93;2.10;;;10.60;99.90;;;;;;5061560;28;20025;-93
2022/10/19 05:46:33;;;;;;;13.75;2.92;;;10.60;99.90;;;;;;5053455;28;20040;-92
2022/10/19 05:49:01;;;;;;;10.77;2.25;;;10.50;99.90;;;;;;5063814;28;20497;-91
2022/10/19 05:51:28;;;;;;;12.40;2.45;;;10.50;99.90;;;;;;5040580;28;20057;-92
2022/10/19 05:53:56;;;;;;;14.30;3.72;;;10.50;99.90;;;;;;5060097;28;20097;-92
2022/10/19 05:56:25;;;;;;;10.10;2.03;;;10.50;99.90;;;;;;5048789;28;20048;-93
2022/10/19 05:58:58;;;;;;;15.18;2.60;;;10.50;99.90;;;;;;5056444;28;20052;-90
2022/10/19 06:01:25;;;;;;;9.13;2.28;;;10.50;99.90;;;;;;5060261;28;20025;-92
2022/10/19 06:04:00;;;;;;;14.15;3.05;;;10.50;99.90;;;;;;5053179;28;20140;-92
2022/10/19 06:06:26;;;;;;;16.08;3.13;;;10.50;99.90;;;;;;5049269;28;20021;-92
2022/10/19 06:08:53;;;;;;;25.25;4.07;;;10.50;99.90;;;;;;5058237;28;20091;-91
2022/10/19 06:11:24;;;;;;;11.48;2.72;;;10.50;99.90;;;;;;5050964;28;20029;-91
2022/10/19 06:13:53;;;;;;;17.13;3.15;;;10.40;99.90;;;;;;5053880;28;20025;-91
2022/10/19 06:16:23;;;;;;;13.13;2.70;;;10.50;99.90;;;;;;5061412;28;20098;-91
2022/10/19 06:18:49;;;;;;;14.20;2.80;;;10.40;99.90;;;;;;5058883;28;20051;-91
2022/10/19 06:21:19;;;;;;;15.15;2.90;;;10.40;99.90;;;;;;5054048;28;20071;-92
2022/10/19 06:23:49;;;;;;;9.75;4.20;;;10.40;99.90;;;;;;5052173;28;20078;-90
2022/10/19 06:26:15;;;;;;;21.75;3.13;;;10.40;99.90;;;;;;5047656;28;20020;-90
2022/10/19 06:28:42;;;;;;;17.38;4.35;;;10.30;99.90;;;;;;5049149;28;20032;-93
2022/10/19 06:31:09;;;;;;;16.55;2.75;;;10.40;99.90;;;;;;5043931;28;20048;-92
2022/10/19 06:33:35;;;;;;;19.38;2.67;;;10.30;99.90;;;;;;5046984;28;20397;-91
2022/10/19 06:36:11;;;;;;;13.43;2.40;;;10.30;99.90;;;;;;5045030;28;20029;-90
2022/10/19 06:38:37;;;;;;;12.52;2.53;;;10.30;99.90;;;;;;5048532;28;20040;-92
2022/10/19 06:41:03;;;;;;;10.68;2.80;;;10.40;99.90;;;;;;5054445;28;20119;-90
2022/10/19 06:43:29;;;;;;;22.30;3.28;;;10.40;99.90;;;;;;5056443;28;20032;-91
2022/10/19 06:46:02;;;;;;;13.48;2.50;;;10.40;99.90;;;;;;5044886;28;20025;-91
2022/10/19 06:48:27;;;;;;;15.90;2.92;;;10.40;99.90;;;;;;5053327;28;20037;-91
2022/10/19 06:50:57;;;;;;;10.55;2.63;;;10.40;99.90;;;;;;5054733;28;20021;-91
2022/10/19 06:53:23;;;;;;;15.25;3.22;;;10.40;99.90;;;;;;5045102;28;20128;-91
2022/10/19 06:55:48;;;;;;;16.95;3.60;;;10.40;99.90;;;;;;5060809;28;20116;-91
2022/10/19 06:58:14;;;;;;;6.22;2.03;;;10.40;99.90;;;;;;5053999;28;20433;-92
2022/10/19 07:00:40;;;;;;;17.13;2.60;;;10.40;99.90;;;;;;5059759;28;20032;-91
2022/10/19 07:03:08;;;;;;;11.30;2.47;;;10.40;99.90;;;;;;5041903;28;20401;-90
2022/10/19 07:05:34;;;;;;;6.28;2.22;;;10.40;99.90;;;;;;5045395;28;20029;-90
2022/10/19 07:08:02;;;;;;;20.52;2.42;;;10.40;99.90;;;;;;5048474;28;20091;-91
2022/10/19 07:10:28;;;;;;;12.38;2.40;;;10.50;99.90;;;;;;5047370;28;20096;-91
2022/10/19 07:12:57;;;;;;;8.57;2.10;;;10.50;99.90;;;;;;5047344;28;20116;-92
2022/10/19 07:15:22;;;;;;;8.85;2.05;;;10.50;99.90;;;;;;5033390;28;20029;-92
2022/10/19 07:17:48;;;;;;;14.52;2.72;;;10.50;99.90;;;;;;5045627;28;20489;-90
2022/10/19 07:20:14;;;;;;;9.45;1.95;;;10.50;99.90;;;;;;5053818;28;20111;-92
2022/10/19 07:22:39;;;;;;;11.80;2.08;;;10.40;99.90;;;;;;5051139;28;20039;-92
2022/10/19 07:25:05;;;;;;;21.05;2.50;;;10.50;99.90;;;;;;5054135;28;20021;-90
2022/10/19 07:27:31;;;;;;;2.03;1.58;;;10.50;99.90;;;;;;5051573;28;20052;-90
2022/10/19 07:29:59;;;;;;;4.75;1.40;;;10.50;99.90;;;;;;5054179;28;20037;-92
2022/10/19 07:32:27;;;;;;;12.95;2.67;;;10.60;99.90;;;;;;5049938;28;20032;-92
2022/10/19 07:34:53;;;;;;;10.60;1.90;;;10.50;99.90;;;;;;5043522;28;20632;-91
2022/10/19 07:37:18;;;;;;;6.53;1.90;;;10.50;99.90;;;;;;5055028;28;20298;-90
2022/10/19 07:39:44;;;;;;;10.40;2.33;;;10.50;99.90;;;;;;5055266;28;20028;-92
2022/10/19 07:42:09;;;;;;;5.95;2.25;;;10.60;99.90;;;;;;5057816;28;20036;-92
2022/10/19 07:44:35;;;;;;;10.65;2.47;;;10.50;99.90;;;;;;5058003;28;20122;-91
2022/10/19 07:47:03;;;;;;;10.60;3.50;;;10.60;99.90;;;;;;5056896;28;20133;-91
2022/10/19 07:49:29;;;;;;;7.38;1.90;;;10.60;99.90;;;;;;5053643;28;20378;-92
2022/10/19 07:51:55;;;;;;;9.57;1.67;;;10.60;99.90;;;;;;5058046;28;20025;-91
2022/10/19 07:54:21;;;;;;;7.70;1.67;;;10.60;99.90;;;;;;5055338;28;20025;-91
2022/10/19 07:56:47;;;;;;;11.77;2.17;;;10.70;99.90;;;;;;5050215;28;20066;-91
2022/10/19 07:59:15;;;;;;;6.05;1.50;;;10.70;99.90;;;;;;5063181;28;20111;-91
2022/10/19 08:01:40;;;;;;;10.68;2.17;;;10.70;99.90;;;;;;5058116;28;20109;-92
2022/10/19 08:04:09;;;;;;;10.55;1.90;;;10.70;99.90;;;;;;5049099;28;20108;-93
2022/10/19 08:06:36;;;;;;;8.02;1.50;;;10.70;99.90;;;;;;5043126;28;20028;-91
2022/10/19 08:09:02;;;;;;;9.75;2.00;;;10.80;99.90;;;;;;5045164;28;20052;-90
2022/10/19 08:11:33;;;;;;;12.10;2.05;;;10.70;99.90;;;;;;5049166;28;20021;-92
2022/10/19 08:13:59;;;;;;;5.97;1.27;;;10.80;99.90;;;;;;5054413;28;20025;-91
2022/10/19 08:16:27;;;;;;;7.97;2.30;;;10.80;99.90;;;;;;5049914;28;20021;-91
2022/10/19 08:18:57;;;;;;;16.38;1.98;;;10.80;99.90;;;;;;5053676;28;20029;-91
2022/10/19 08:21:23;;;;;;;15.20;2.20;;;10.80;99.90;;;;;;5048439;28;20025;-90
2022/10/19 08:23:49;;;;;;;11.00;1.92;;;10.90;99.90;;;;;;5048964;28;20367;-92
2022/10/19 08:26:14;;;;;;;12.50;2.05;;;10.90;99.90;;;;;;5056900;28;20420;-90
2022/10/19 08:28:40;;;;;;;12.32;3.05;;;10.90;99.90;;;;;;5049054;28;20064;-91
2022/10/19 08:31:10;;;;;;;7.07;2.00;;;10.90;99.90;;;;;;5055955;28;20517;-92
2022/10/19 08:33:36;;;;;;;12.80;2.05;;;11.00;99.90;;;;;;5054583;28;20028;-91
2022/10/19 08:36:10;;;;;;;12.48;2.03;;;10.90;99.90;;;;;;5049396;28;20366;-90
2022/10/19 08:38:36;;;;;;;9.15;1.85;;;10.90;99.90;;;;;;5046868;28;20409;-92
2022/10/19 08:41:32;;;;;;;8.95;2.03;;;10.90;99.90;;;;;;5051678;28;20024;-90
2022/10/19 08:44:21;;;;;;;18.67;2.77;;;10.90;99.90;;;;;;5045971;28;20485;-91
2022/10/19 08:47:14;;;;;;;7.60;1.20;;;10.90;99.90;;;;;;5052831;28;20278;-92
2022/10/19 08:49:41;;;;;;;7.72;1.27;;;10.90;99.90;;;;;;5053603;28;20508;-91
2022/10/19 08:52:23;;;;;;;4.93;1.80;;;10.90;99.90;;;;;;5053216;28;20027;-91
2022/10/19 08:54:58;;;;;;;6.60;1.38;;;11.00;99.90;;;;;;5051726;28;20035;-91
2022/10/19 08:57:36;;;;;;;6.20;1.58;;;11.10;99.90;;;;;;5053136;28;20029;-93
2022/10/19 09:00:34;;;;;;;4.72;1.25;;;11.10;99.90;;;;;;5053815;28;20060;-93
2022/10/19 09:03:23;;;;;;;5.18;1.23;;;11.00;99.90;;;;;;5048874;28;20037;-92
2022/10/19 09:05:48;;;;;;;4.22;1.25;;;11.10;99.90;;;;;;5052667;28;20040;-91
2022/10/19 09:08:15;;;;;;;5.38;1.23;;;11.10;99.90;;;;;;5047637;28;20129;-93
2022/10/19 09:10:44;;;;;;;5.13;1.58;;;11.10;99.90;;;;;;5054623;28;20057;-91
2022/10/19 09:13:35;;;;;;;7.75;1.77;;;11.10;99.90;;;;;;5044260;28;20386;-91
2022/10/19 09:16:05;;;;;;;7.32;1.58;;;11.10;99.90;;;;;;5046559;28;20108;-91
2022/10/19 09:18:33;;;;;;;7.72;1.30;;;11.20;99.90;;;;;;5049547;28;20067;-91
2022/10/19 09:21:24;;;;;;;5.00;1.25;;;11.20;99.90;;;;;;5054053;28;20024;-91
2022/10/19 09:24:09;;;;;;;6.15;1.58;;;11.10;99.90;;;;;;5050307;28;20038;-92
2022/10/19 09:26:50;;;;;;;12.05;1.92;;;11.20;99.90;;;;;;5030211;28;20029;-90
2022/10/19 09:29:36;;;;;;;8.60;2.30;;;11.20;99.90;;;;;;5044477;28;20478;-92
2022/10/19 09:32:08;;;;;;;6.15;1.27;;;11.30;99.90;;;;;;5048491;28;20072;-91
2022/10/19 09:34:40;;;;;;;5.35;1.73;;;11.20;99.90;;;;;;5050734;28;20056;-92
2022/10/19 09:37:05;;;;;;;4.63;1.85;;;11.20;99.90;;;;;;5052499;28;20041;-91
2022/10/19 09:39:32;;;;;;;7.82;1.58;;;11.20;99.90;;;;;;5054240;28;20034;-89
2022/10/19 09:42:09;;;;;;;5.97;2.33;;;11.20;99.90;;;;;;5040719;28;20481;-91
2022/10/19 09:44:35;;;;;;;13.43;1.83;;;11.20;99.90;;;;;;5052343;28;20058;-91
2022/10/19 09:47:22;;;;;;;11.65;2.20;;;11.20;99.90;;;;;;5050078;28;20028;-92
2022/10/19 09:49:48;;;;;;;8.35;2.05;;;11.20;99.90;;;;;;5051058;28;20370;-91
2022/10/19 09:52:37;;;;;;;10.00;2.80;;;11.20;99.90;;;;;;5049636;28;20043;-91
2022/10/19 09:55:12;;;;;;;7.60;2.00;;;11.20;99.90;;;;;;5052139;28;20036;-90
2022/10/19 09:57:42;;;;;;;6.25;1.80;;;11.20;99.90;;;;;;5039230;28;20086;-93
2022/10/19 10:00:30;;;;;;;6.80;1.85;;;11.30;99.90;;;;;;5049446;28;20040;-91
2022/10/19 10:02:55;;;;;;;7.60;1.70;;;11.20;99.90;;;;;;5045909;28;20037;-93
2022/10/19 10:05:31;;;;;;;6.70;1.77;;;11.30;99.90;;;;;;5051018;28;20540;-92
2022/10/19 10:07:57;;;;;;;5.50;2.35;;;11.30;99.90;;;;;;5053551;28;20033;-89
2022/10/19 10:10:27;;;;;;;4.07;1.70;;;11.30;99.90;;;;;;5045969;28;20075;-93
2022/10/19 10:12:53;;;;;;;7.50;1.90;;;11.40;99.90;;;;;;5039605;28;20358;-90
2022/10/19 10:15:25;;;;;;;6.13;1.40;;;11.30;99.90;;;;;;5051578;28;20044;-92
2022/10/19 10:17:51;;;;;;;7.22;1.45;;;11.30;99.90;;;;;;5054223;28;20044;-92
2022/10/19 10:20:28;;;;;;;11.65;1.52;;;11.30;99.90;;;;;;5053989;28;20499;-91
2022/10/19 10:23:02;;;;;;;7.85;1.83;;;11.30;99.90;;;;;;5049588;28;20040;-92
2022/10/19 10:25:30;;;;;;;8.48;1.70;;;11.30;99.90;;;;;;5042830;28;20393;-91
2022/10/19 10:28:19;;;;;;;9.80;1.80;;;11.30;99.90;;;;;;5038235;28;20033;-93
2022/10/19 10:30:47;;;;;;;7.35;1.83;;;11.30;99.90;;;;;;5052125;28;20020;-90
2022/10/19 10:33:24;;;;;;;6.13;2.05;;;11.30;99.90;;;;;;5032217;28;20057;-91
2022/10/19 10:35:54;;;;;;;9.50;1.60;;;11.30;99.90;;;;;;5053790;28;20041;-93
2022/10/19 10:38:27;;;;;;;4.68;1.50;;;11.30;99.90;;;;;;5052234;28;20064;-92
2022/10/19 10:41:01;;;;;;;3.78;1.38;;;11.30;99.90;;;;;;5042493;28;20031;-93
2022/10/19 10:43:32;;;;;;;10.27;2.10;;;11.40;99.90;;;;;;5051915;28;20060;-92
2022/10/19 10:46:09;;;;;;;3.72;1.42;;;11.40;99.90;;;;;;5039302;28;20052;-92
2022/10/19 10:48:41;;;;;;;13.25;2.28;;;11.40;99.90;;;;;;5049803;28;20120;-92
2022/10/19 10:51:28;;;;;;;6.78;1.75;;;11.40;99.90;;;;;;5048163;28;20029;-92
2022/10/19 10:54:24;;;;;;;13.82;2.03;;;11.40;99.90;;;;;;5049811;28;20424;-93
2022/10/19 10:57:17;;;;;;;6.15;1.73;;;11.40;99.90;;;;;;5055201;28;20053;-92
2022/10/19 11:00:06;;;;;;;8.27;2.55;;;11.40;99.90;;;;;;5056709;28;20033;-93
2022/10/19 11:02:45;;;;;;;7.15;1.90;;;11.50;99.90;;;;;;5052863;28;20052;-90
2022/10/19 11:05:28;;;;;;;4.43;1.70;;;11.50;99.90;;;;;;5055108;28;20036;-92
2022/10/19 11:08:21;;;;;;;19.60;2.38;;;11.50;99.90;;;;;;5051751;28;20037;-91
2022/10/19 11:10:58;;;;;;;3.28;1.40;;;11.50;99.90;;;;;;5055046;28;20039;-91
2022/10/19 11:13:32;;;;;;;5.70;2.08;;;11.50;99.90;;;;;;5041261;28;20035;-92
2022/10/19 11:16:12;;;;;;;15.00;2.42;;;11.50;99.90;;;;;;5056704;28;20024;-92
2022/10/19 11:18:55;;;;;;;10.50;2.25;;;11.50;99.90;;;;;;5050907;28;20048;-93
2022/10/19 11:21:49;;;;;;;5.97;1.60;;;11.50;99.90;;;;;;5048575;28;20025;-91
2022/10/19 11:24:54;;;;;;;6.88;2.42;;;11.50;99.90;;;;;;5059303;28;20032;-92
2022/10/19 11:27:29;;;;;;;14.88;3.20;;;11.50;99.90;;;;;;5048313;28;20060;-90
2022/10/19 11:30:07;;;;;;;5.88;2.28;;;11.50;99.90;;;;;;5047898;28;20025;-92
2022/10/19 11:32:44;;;;;;;5.95;2.30;;;11.50;99.90;;;;;;5046231;28;20036;-91
2022/10/19 11:35:37;;;;;;;7.25;2.20;;;11.50;99.90;;;;;;5055712;28;20027;-91
2022/10/19 11:38:40;;;;;;;8.93;2.40;;;11.50;99.90;;;;;;5055343;28;20063;-92
2022/10/19 11:41:43;;;;;;;10.85;2.72;;;11.50;99.90;;;;;;5053160;28;20464;-92
2022/10/19 11:44:08;;;;;;;13.13;3.08;;;11.50;99.90;;;;;;5061490;28;20040;-92
2022/10/19 11:46:45;;;;;;;9.10;2.55;;;11.50;99.90;;;;;;5053984;28;20497;-92
2022/10/19 11:49:19;;;;;;;9.00;2.25;;;11.50;99.90;;;;;;5051453;28;20044;-91
2022/10/19 11:51:57;;;;;;;15.13;3.85;;;11.50;99.90;;;;;;5059576;28;20028;-93
2022/10/19 11:54:47;;;;;;;17.58;3.42;;;11.50;99.90;;;;;;5048977;28;20116;-92
2022/10/19 11:57:30;;;;;;;11.88;3.00;;;11.50;99.90;;;;;;5059888;28;20358;-91
2022/10/19 12:00:21;;;;;;;7.93;2.30;;;11.50;99.90;;;;;;5057053;28;20382;-92
2022/10/19 12:03:11;;;;;;;5.28;2.08;;;11.50;99.90;;;;;;5053617;28;20179;-91
2022/10/19 12:06:13;;;;;;;9.38;2.92;;;11.60;99.90;;;;;;5050018;28;20032;-91
2022/10/19 12:08:57;;;;;;;12.63;2.53;;;11.60;99.90;;;;;;5054481;28;20041;-92
2022/10/19 12:11:51;;;;;;;20.42;3.10;;;11.60;99.90;;;;;;5059842;28;20131;-89
2022/10/19 12:14:25;;;;;;;10.93;2.97;;;11.60;99.90;;;;;;5041753;28;20024;-91
2022/10/19 12:16:58;;;;;;;7.00;2.67;;;11.60;99.90;;;;;;5059259;28;20032;-92
2022/10/19 12:19:29;;;;;;;5.35;2.35;;;11.60;99.90;;;;;;5058006;28;20035;-92
2022/10/19 12:21:59;;;;;;;7.53;2.85;;;11.60;99.90;;;;;;5050194;28;20025;-92
2022/10/19 12:24:27;;;;;;;15.70;4.25;;;11.60;99.90;;;;;;5053710;28;20078;-90
2022/10/19 12:26:54;;;;;;;8.95;2.47;;;11.60;99.90;;;;;;5057233;28;20048;-91
2022/10/19 12:29:26;;;;;;;8.32;3.15;;;11.60;99.90;;;;;;5060083;28;20037;-92
2022/10/19 12:31:54;;;;;;;14.82;3.60;;;11.60;99.90;;;;;;5052176;28;20037;-92
2022/10/19 12:34:26;;;;;;;11.05;3.63;;;11.60;99.90;;;;;;5047794;28;20025;-93
2022/10/19 12:37:29;;;;;;;8.02;3.17;;;11.60;99.90;;;;;;5052362;28;20077;-92
2022/10/19 12:40:02;;;;;;;20.08;4.95;;;11.60;99.90;;;;;;5022304;28;20033;-92
2022/10/19 12:42:34;;;;;;;11.18;5.78;;;11.70;99.90;;;;;;5013277;28;20042;-92
2022/10/19 12:45:20;;;;;;;13.90;5.47;;;11.60;99.90;;;;;;5006340;28;20038;-91
2022/10/19 12:48:17;;;;;;;10.10;4.40;;;11.60;99.90;;;;;;5021457;28;20044;-91
2022/10/19 12:50:49;;;;;;;12.68;4.00;;;11.60;99.90;;;;;;5012648;28;20033;-93
2022/10/19 12:53:34;;;;;;;11.00;3.42;;;11.60;99.90;;;;;;5011323;28;20529;-90
2022/10/19 12:56:32;;;;;;;8.45;3.20;;;11.60;99.90;;;;;;4995166;28;20058;-92
2022/10/19 12:59:00;;;;;;;9.77;3.13;;;11.60;99.90;;;;;;5000353;28;20033;-92
2022/10/19 13:01:42;;;;;;;9.70;3.28;;;11.60;99.90;;;;;;5009115;28;20407;-92
2022/10/19 13:04:18;;;;;;;6.93;3.53;;;11.60;99.90;;;;;;5013082;28;20434;-92
2022/10/19 13:06:57;;;;;;;12.23;3.20;;;11.60;99.90;;;;;;5002438;28;20022;-90
2022/10/19 13:09:30;;;;;;;7.78;3.53;;;11.60;99.90;;;;;;5022194;28;20087;-90
2022/10/19 13:12:22;;;;;;;11.15;2.95;;;11.60;99.90;;;;;;5009112;28;20026;-92
2022/10/19 13:15:03;;;;;;;10.27;2.97;;;11.60;99.90;;;;;;5010117;28;20034;-92
2022/10/19 13:17:39;;;;;;;5.55;2.13;;;11.60;99.90;;;;;;5013306;28;20407;-92
2022/10/19 13:20:14;;;;;;;7.90;2.15;;;11.60;99.90;;;;;;5012672;28;20038;-90